Time;durP1;ratioP1;P1;durP2;ratioP2;P2;SDS_P1;SDS_P2;PMS_P1;PMS_P2;Temp;Humidity;BMP_temperature;BMP_pressure;BME280_temperature;BME280_humidity;BME280_pressure;Samples;Min_cycle;Max_cycle;Signal;HPM_P1;HPM_P2
2024/01/28 00:01:29;;;;;;;;;;;;;;;12.29;79.23;101326.31;10257711;28;98966;-76
2024/01/28 00:06:33;;;;;;;;;;;;;;;12.28;79.01;101319.31;10250281;28;96816;-76
2024/01/28 00:11:37;;;;;;;;;;;;;;;12.24;79.61;101311.50;10252533;28;97129;-76
2024/01/28 00:16:40;;;;;;;;;;;;;;;12.21;79.66;101303.69;10259933;28;98027;-76
2024/01/28 00:21:44;;;;;;;;;;;;;;;12.24;79.78;101312.38;10252040;28;96974;-75
2024/01/28 00:26:47;;;;;;;;;;;;;;;12.19;79.88;101310.78;10251511;28;96764;-76
2024/01/28 00:31:50;;;;;;;;;;;;;;;12.15;79.60;101301.25;10251673;28;97040;-75
2024/01/28 00:36:55;;;;;;;;;;;;;;;12.13;80.61;101282.78;10250841;28;97021;-76
2024/01/28 00:41:58;;;;;;;;;;;;;;;12.09;80.17;101283.81;10248776;28;96828;-75
2024/01/28 00:47:01;;;;;;;;;;;;;;;12.10;80.38;101282.06;10247210;28;99588;-76
2024/01/28 00:52:07;;;;;;;;;;;;;;;12.09;79.75;101289.09;10249609;28;98629;-76
2024/01/28 00:57:11;;;;;;;;;;;;;;;12.08;79.40;101300.53;10251403;28;98453;-76
2024/01/28 01:02:14;;;;;;;;;;;;;;;12.08;79.80;101297.91;10251715;28;98616;-76
2024/01/28 01:07:19;;;;;;;;;;;;;;;12.04;79.90;101284.84;10251961;28;97556;-76
2024/01/28 01:12:22;;;;;;;;;;;;;;;12.04;80.39;101280.44;10250816;28;97064;-76
2024/01/28 01:17:25;;;;;;;;;;;;;;;12.02;80.23;101276.13;10246292;28;98451;-76
2024/01/28 01:22:30;;;;;;;;;;;;;;;12.01;80.79;101253.31;10256675;28;96752;-76
2024/01/28 01:27:33;;;;;;;;;;;;;;;11.95;80.34;101251.69;10272910;28;96745;-76
2024/01/28 01:32:38;;;;;;;;;;;;;;;11.90;80.42;101234.28;10259786;28;96788;-76
2024/01/28 01:37:43;;;;;;;;;;;;;;;11.86;80.23;101238.78;10252984;28;96861;-76
2024/01/28 01:42:46;;;;;;;;;;;;;;;11.81;80.72;101229.25;10261753;28;96772;-76
2024/01/28 01:47:49;;;;;;;;;;;;;;;11.87;81.59;101208.88;10254006;28;96747;-76
2024/01/28 01:52:54;;;;;;;;;;;;;;;11.89;81.22;101214.94;10267845;28;97159;-76
2024/01/28 01:57:58;;;;;;;;;;;;;;;11.93;81.32;101218.34;10282095;28;96961;-75
2024/01/28 02:03:01;;;;;;;;;;;;;;;11.89;81.05;101222.00;10271255;28;96790;-76
2024/01/28 02:08:06;;;;;;;;;;;;;;;11.88;81.26;101231.69;10264335;28;96777;-76
2024/01/28 02:13:10;;;;;;;;;;;;;;;11.81;81.79;101224.00;10258342;28;96759;-75
2024/01/28 02:18:13;;;;;;;;;;;;;;;11.73;82.24;101234.78;10262480;28;96821;-75
2024/01/28 02:23:19;;;;;;;;;;;;;;;11.77;82.00;101246.09;10256465;28;96779;-75
2024/01/28 02:28:22;;;;;;;;;;;;;;;11.72;81.73;101240.09;10245383;28;97067;-76
2024/01/28 02:33:25;;;;;;;;;;;;;;;11.64;82.29;101232.41;10255536;28;96796;-76
2024/01/28 02:38:30;;;;;;;;;;;;;;;11.60;82.85;101237.81;10244281;28;96926;-76
2024/01/28 02:43:34;;;;;;;;;;;;;;;11.61;82.43;101237.75;10253517;28;97857;-76
2024/01/28 02:48:37;;;;;;;;;;;;;;;11.64;82.74;101235.03;10251597;28;98696;-75
2024/01/28 02:53:42;;;;;;;;;;;;;;;11.64;82.55;101220.97;10256613;28;96830;-75
2024/01/28 02:58:45;;;;;;;;;;;;;;;11.65;82.58;101214.81;10256605;28;96818;-76
2024/01/28 03:03:48;;;;;;;;;;;;;;;11.62;82.27;101202.56;10256066;28;97661;-76
2024/01/28 03:08:53;;;;;;;;;;;;;;;11.57;82.68;101200.97;10242322;28;96820;-76
2024/01/28 03:13:56;;;;;;;;;;;;;;;11.54;82.25;101207.22;10256075;28;96844;-76
2024/01/28 03:18:59;;;;;;;;;;;;;;;11.49;82.55;101208.25;10255637;28;97227;-76
2024/01/28 03:24:04;;;;;;;;;;;;;;;11.43;83.01;101208.41;10257043;28;96771;-76
2024/01/28 03:29:07;;;;;;;;;;;;;;;11.37;82.99;101199.75;10253666;28;96841;-76
2024/01/28 03:34:10;;;;;;;;;;;;;;;11.36;83.88;101212.97;10255000;28;96811;-76
2024/01/28 03:39:15;;;;;;;;;;;;;;;11.33;83.82;101213.94;10238106;28;97431;-76
2024/01/28 03:44:22;;;;;;;;;;;;;;;11.34;83.68;101206.88;10259480;28;97939;-76
2024/01/28 03:49:27;;;;;;;;;;;;;;;11.39;83.08;101216.41;10267441;28;96984;-75
2024/01/28 03:54:31;;;;;;;;;;;;;;;11.21;83.78;101203.75;10253472;28;98523;-76
2024/01/28 03:59:38;;;;;;;;;;;;;;;11.18;84.81;101216.13;10251244;28;96767;-75
2024/01/28 04:04:41;;;;;;;;;;;;;;;11.16;84.11;101215.31;10251943;28;97110;-76
2024/01/28 04:09:46;;;;;;;;;;;;;;;11.05;84.80;101212.03;10251913;28;96910;-76
2024/01/28 04:14:49;;;;;;;;;;;;;;;10.99;85.17;101205.16;10250351;28;97353;-76
2024/01/28 04:19:52;;;;;;;;;;;;;;;10.99;84.61;101210.44;10252369;28;96800;-76
2024/01/28 04:24:57;;;;;;;;;;;;;;;10.99;84.77;101215.69;10252333;28;96781;-76
2024/01/28 04:30:00;;;;;;;;;;;;;;;10.98;85.52;101219.25;10252726;28;96709;-76
2024/01/28 04:35:04;;;;;;;;;;;;;;;10.98;85.45;101213.97;10253325;28;97065;-76
2024/01/28 04:40:10;;;;;;;;;;;;;;;10.97;85.33;101201.69;10251733;28;96754;-76
2024/01/28 04:45:13;;;;;;;;;;;;;;;11.01;84.71;101203.34;10231961;28;96848;-76
2024/01/28 04:50:16;;;;;;;;;;;;;;;11.00;84.95;101206.91;10210974;28;96639;-75
2024/01/28 04:55:21;;;;;;;;;;;;;;;10.95;84.95;101218.47;10243835;28;98492;-75
2024/01/28 05:00:24;;;;;;;;;;;;;;;10.89;85.04;101222.09;10251813;28;96871;-75
2024/01/28 05:05:27;;;;;;;;;;;;;;;10.91;85.14;101220.31;10254410;28;97274;-76
2024/01/28 05:10:32;;;;;;;;;;;;;;;10.92;84.95;101223.81;10249082;28;97612;-75
2024/01/28 05:15:35;;;;;;;;;;;;;;;10.96;85.43;101228.94;10255957;28;96810;-75
2024/01/28 05:20:38;;;;;;;;;;;;;;;10.99;85.06;101234.13;10257111;28;96736;-75
2024/01/28 05:25:43;;;;;;;;;;;;;;;11.04;84.60;101234.88;10257686;28;98417;-76
2024/01/28 05:30:46;;;;;;;;;;;;;;;11.04;84.34;101228.75;10256873;28;96921;-75
2024/01/28 05:35:49;;;;;;;;;;;;;;;10.98;84.82;101242.06;10257065;28;96882;-75
2024/01/28 05:40:54;;;;;;;;;;;;;;;11.00;85.03;101227.97;10254972;28;96794;-76
2024/01/28 05:45:57;;;;;;;;;;;;;;;10.81;84.77;101229.34;10253439;28;96902;-76
2024/01/28 05:51:00;;;;;;;;;;;;;;;10.72;85.46;101223.44;10257032;28;96798;-76
2024/01/28 05:56:06;;;;;;;;;;;;;;;10.58;85.60;101217.63;10256044;28;96894;-76
2024/01/28 06:01:09;;;;;;;;;;;;;;;10.51;86.32;101195.88;10256082;28;97251;-76
2024/01/28 06:06:12;;;;;;;;;;;;;;;10.43;86.56;101203.09;10255501;28;96946;-76
2024/01/28 06:11:17;;;;;;;;;;;;;;;10.47;86.56;101207.38;10247302;28;96886;-76
2024/01/28 06:16:20;;;;;;;;;;;;;;;10.47;86.49;101225.78;10255775;28;96993;-76
2024/01/28 06:21:23;;;;;;;;;;;;;;;10.51;85.99;101218.69;10263508;28;97329;-77
2024/01/28 06:26:28;;;;;;;;;;;;;;;10.42;86.13;101217.13;10259300;28;98920;-77
2024/01/28 06:31:31;;;;;;;;;;;;;;;10.44;86.24;101212.72;10241634;28;96875;-78
2024/01/28 06:36:34;;;;;;;;;;;;;;;10.48;86.16;101224.03;10266432;28;97566;-77
2024/01/28 06:41:41;;;;;;;;;;;;;;;10.55;85.94;101215.97;10264180;28;96797;-78
2024/01/28 06:46:45;;;;;;;;;;;;;;;10.50;85.46;101225.75;10253833;28;96913;-77
2024/01/28 06:51:48;;;;;;;;;;;;;;;10.38;86.68;101225.16;10258214;28;96929;-77
2024/01/28 06:56:52;;;;;;;;;;;;;;;10.49;86.51;101224.00;10253043;28;96835;-77
2024/01/28 07:01:56;;;;;;;;;;;;;;;10.48;86.02;101232.78;10258379;28;96852;-77
2024/01/28 07:06:59;;;;;;;;;;;;;;;10.47;85.72;101232.84;10257221;28;96878;-77
2024/01/28 07:12:05;;;;;;;;;;;;;;;10.49;85.57;101225.78;10237863;28;96860;-77
2024/01/28 07:17:08;;;;;;;;;;;;;;;10.44;85.32;101230.28;10256546;28;98628;-76
2024/01/28 07:22:12;;;;;;;;;;;;;;;10.40;85.83;101239.16;10263377;28;97734;-76
2024/01/28 07:27:16;;;;;;;;;;;;;;;10.48;85.41;101253.84;10252840;28;97019;-76
2024/01/28 07:32:19;;;;;;;;;;;;;;;10.46;85.21;101238.97;10248003;28;98521;-77
2024/01/28 07:37:23;;;;;;;;;;;;;;;10.45;85.76;101256.56;10254642;28;96880;-77
2024/01/28 07:42:27;;;;;;;;;;;;;;;10.41;85.74;101260.16;10254763;28;96955;-77
2024/01/28 07:47:30;;;;;;;;;;;;;;;10.41;85.57;101270.69;10254750;28;97482;-76
2024/01/28 07:52:34;;;;;;;;;;;;;;;10.39;85.68;101298.78;10254586;28;96804;-76
2024/01/28 07:57:38;;;;;;;;;;;;;;;10.37;85.83;101302.38;10253228;28;96767;-77
2024/01/28 08:02:41;;;;;;;;;;;;;;;10.45;85.09;101298.66;10252954;28;98209;-77
2024/01/28 08:07:45;;;;;;;;;;;;;;;10.51;85.26;101280.09;10254146;28;96945;-76
2024/01/28 08:12:49;;;;;;;;;;;;;;;10.52;84.48;101289.72;10251664;28;96919;-77
2024/01/28 08:17:52;;;;;;;;;;;;;;;10.61;85.07;101292.13;10258658;28;97317;-76
2024/01/28 08:22:55;;;;;;;;;;;;;;;10.59;84.34;101320.28;10265649;28;98753;-77
2024/01/28 08:28:00;;;;;;;;;;;;;;;10.62;84.58;101320.19;10265227;28;96763;-77
2024/01/28 08:33:03;;;;;;;;;;;;;;;10.62;84.81;101308.78;10257212;28;97941;-75
2024/01/28 08:38:06;;;;;;;;;;;;;;;10.66;84.64;101335.00;10254405;28;96795;-76
2024/01/28 08:43:13;;;;;;;;;;;;;;;10.67;84.67;101313.06;10273640;28;96752;-76
2024/01/28 08:48:16;;;;;;;;;;;;;;;10.69;83.63;101318.28;10258917;28;96816;-78
2024/01/28 08:53:19;;;;;;;;;;;;;;;10.64;83.68;101313.13;10258909;28;98637;-78
2024/01/28 08:58:23;;;;;;;;;;;;;;;10.64;83.92;101301.72;10255386;28;97269;-77
2024/01/28 09:03:27;;;;;;;;;;;;;;;10.73;83.10;101299.72;10248724;28;96817;-78
2024/01/28 09:08:30;;;;;;;;;;;;;;;10.67;83.81;101315.69;10250507;28;96847;-77
2024/01/28 09:13:35;;;;;;;;;;;;;;;10.73;83.47;101317.31;10255001;28;96921;-77
2024/01/28 09:18:42;;;;;;;;;;;;;;;10.65;83.74;101317.47;10251666;28;97253;-77
2024/01/28 09:23:45;;;;;;;;;;;;;;;10.57;83.29;101322.06;10252366;28;96779;-78
2024/01/28 09:28:50;;;;;;;;;;;;;;;10.63;83.45;101316.66;10249744;28;96738;-77
2024/01/28 09:33:53;;;;;;;;;;;;;;;10.71;82.83;101333.16;10243309;28;96754;-78
2024/01/28 09:38:56;;;;;;;;;;;;;;;10.93;82.38;101337.00;10255744;28;98415;-78
2024/01/28 09:44:00;;;;;;;;;;;;;;;11.00;82.35;101343.84;10242384;28;98793;-78
2024/01/28 09:49:04;;;;;;;;;;;;;;;11.09;81.76;101342.81;10246914;28;96809;-78
2024/01/28 09:54:08;;;;;;;;;;;;;;;10.96;81.65;101358.00;10256019;28;97205;-76
2024/01/28 09:59:14;;;;;;;;;;;;;;;11.11;81.04;101346.28;10256766;28;98681;-76
2024/01/28 10:04:17;;;;;;;;;;;;;;;11.23;80.60;101338.91;10260779;28;97644;-78
2024/01/28 10:09:20;;;;;;;;;;;;;;;11.29;80.51;101344.03;10260149;28;96864;-77
2024/01/28 10:14:24;;;;;;;;;;;;;;;11.32;79.93;101366.78;10256155;28;96813;-79
2024/01/28 10:19:27;;;;;;;;;;;;;;;11.47;79.59;101368.19;10336658;22;97072;-77
2024/01/28 10:24:31;;;;;;;;;;;;;;;11.66;79.16;101356.25;10340506;28;96897;-77
2024/01/28 10:29:36;;;;;;;;;;;;;;;11.61;78.75;101332.66;10337866;28;98703;-78
2024/01/28 10:34:39;;;;;;;;;;;;;;;11.62;78.83;101337.03;10334071;28;97790;-77
2024/01/28 10:39:44;;;;;;;;;;;;;;;11.68;78.21;101344.78;10337210;28;96787;-79
2024/01/28 10:44:52;;;;;;;;;;;;;;;11.76;77.96;101350.69;10336598;28;96734;-78
2024/01/28 10:49:58;;;;;;;;;;;;;;;11.86;77.90;101356.56;10332901;28;98509;-78
2024/01/28 10:55:02;;;;;;;;;;;;;;;11.80;77.92;101355.00;10324618;28;97805;-78
2024/01/28 11:00:10;;;;;;;;;;;;;;;11.95;77.41;101370.41;10314604;28;98651;-79
2024/01/28 11:05:14;;;;;;;;;;;;;;;12.29;76.58;101362.38;10336085;28;96921;-79
2024/01/28 11:10:18;;;;;;;;;;;;;;;12.54;75.61;101382.75;10331888;28;96942;-77
2024/01/28 11:15:23;;;;;;;;;;;;;;;12.41;75.30;101378.72;10337166;28;97635;-77
2024/01/28 11:20:28;;;;;;;;;;;;;;;12.43;75.32;101371.63;10316919;28;97110;-78
2024/01/28 11:25:36;;;;;;;;;;;;;;;12.57;74.94;101372.09;10308473;28;98625;-78
2024/01/28 11:30:41;;;;;;;;;;;;;;;12.70;74.40;101372.63;10335147;28;96863;-86
2024/01/28 11:35:45;;;;;;;;;;;;;;;12.73;74.67;101376.94;10331824;28;96756;-83
2024/01/28 11:40:53;;;;;;;;;;;;;;;12.69;74.29;101372.69;10335742;28;96754;-80
2024/01/28 11:45:59;;;;;;;;;;;;;;;12.86;73.85;101383.59;10335116;28;97254;-81
2024/01/28 11:51:03;;;;;;;;;;;;;;;12.95;73.88;101378.88;10321813;28;96972;-81
2024/01/28 11:56:07;;;;;;;;;;;;;;;12.99;73.51;101374.34;10334909;28;96999;-82
2024/01/28 12:01:12;;;;;;;;;;;;;;;13.23;73.08;101381.50;10334103;28;96838;-83
2024/01/28 12:06:16;;;;;;;;;;;;;;;13.53;72.05;101378.72;10334224;28;97378;-81
2024/01/28 12:11:20;;;;;;;;;;;;;;;13.44;72.01;101365.81;10331898;28;97177;-81
2024/01/28 12:16:25;;;;;;;;;;;;;;;13.47;71.98;101370.09;10330492;28;96865;-81
2024/01/28 12:21:29;;;;;;;;;;;;;;;13.82;71.02;101363.59;10329788;28;96818;-80
2024/01/28 12:26:33;;;;;;;;;;;;;;;14.02;70.80;101358.53;10323567;28;97642;-81
2024/01/28 12:31:37;;;;;;;;;;;;;;;13.93;70.85;101343.81;10324046;28;96995;-82
2024/01/28 12:36:40;;;;;;;;;;;;;;;13.82;70.83;101337.16;10343474;28;97209;-80
2024/01/28 12:41:44;;;;;;;;;;;;;;;13.75;70.73;101335.63;10334136;28;96848;-80
2024/01/28 12:46:48;;;;;;;;;;;;;;;13.71;70.73;101339.31;10311727;28;97110;-81
2024/01/28 12:51:52;;;;;;;;;;;;;;;13.89;70.80;101328.06;10331425;28;96926;-80
2024/01/28 12:56:56;;;;;;;;;;;;;;;13.87;70.59;101324.63;10334063;28;97960;-80
2024/01/28 13:02:01;;;;;;;;;;;;;;;14.10;69.75;101314.97;10332118;28;98915;-80
2024/01/28 13:07:04;;;;;;;;;;;;;;;14.10;69.89;101311.44;10329136;28;96788;-80
2024/01/28 13:12:08;;;;;;;;;;;;;;;14.22;69.15;101305.69;10331975;28;96739;-80
2024/01/28 13:17:13;;;;;;;;;;;;;;;14.65;68.57;101287.22;10331076;28;98835;-80
2024/01/28 13:22:16;;;;;;;;;;;;;;;14.90;67.72;101287.09;10334251;28;97119;-81
2024/01/28 13:27:19;;;;;;;;;;;;;;;15.31;67.56;101273.00;10324157;28;96984;-81
2024/01/28 13:32:24;;;;;;;;;;;;;;;15.38;66.84;101267.38;10323233;28;97460;-81
2024/01/28 13:37:28;;;;;;;;;;;;;;;15.33;66.74;101264.06;10329381;28;96913;-81
2024/01/28 13:42:31;;;;;;;;;;;;;;;15.56;65.59;101253.28;10332824;28;96790;-82
2024/01/28 13:47:36;;;;;;;;;;;;;;;15.85;65.19;101247.56;10330184;28;97446;-82
2024/01/28 13:52:39;;;;;;;;;;;;;;;16.03;63.89;101243.19;10327724;28;98704;-82
2024/01/28 13:57:42;;;;;;;;;;;;;;;15.93;63.42;101248.06;10328931;28;96895;-82
2024/01/28 14:02:47;;;;;;;;;;;;;;;15.19;65.91;101237.25;10328348;28;99312;-81
2024/01/28 14:07:50;;;;;;;;;;;;;;;15.07;66.62;101237.75;10333289;28;96892;-82
2024/01/28 14:12:54;;;;;;;;;;;;;;;15.22;66.80;101233.59;10329009;28;98151;-82
2024/01/28 14:17:59;;;;;;;;;;;;;;;15.14;67.09;101239.22;10333076;28;96854;-82
2024/01/28 14:23:02;;;;;;;;;;;;;;;15.06;67.62;101233.38;10334668;28;97832;-78
2024/01/28 14:28:05;;;;;;;;;;;;;;;14.91;68.15;101233.16;10334649;28;96883;-78
2024/01/28 14:33:11;;;;;;;;;;;;;;;14.92;68.38;101221.66;10332219;28;97710;-78
2024/01/28 14:38:15;;;;;;;;;;;;;;;14.89;68.25;101227.94;10331356;28;96827;-79
2024/01/28 14:43:18;;;;;;;;;;;;;;;14.96;68.31;101228.53;10337178;28;96824;-77
2024/01/28 14:48:23;;;;;;;;;;;;;;;14.82;68.65;101231.75;10335032;28;96894;-78
2024/01/28 14:53:27;;;;;;;;;;;;;;;15.04;68.65;101222.00;10321740;28;97711;-78
2024/01/28 14:58:30;;;;;;;;;;;;;;;14.85;69.10;101220.19;10331732;28;97163;-79
2024/01/28 15:03:34;;;;;;;;;;;;;;;14.93;69.07;101221.56;10326644;28;97994;-78
2024/01/28 15:08:38;;;;;;;;;;;;;;;14.86;69.26;101220.09;10327240;28;98452;-78
2024/01/28 15:13:42;;;;;;;;;;;;;;;14.88;69.15;101210.31;10334980;28;97136;-78
2024/01/28 15:18:46;;;;;;;;;;;;;;;14.96;68.73;101221.44;10332819;28;96963;-77
2024/01/28 15:23:52;;;;;;;;;;;;;;;14.88;69.01;101207.66;10327391;28;97913;-77
2024/01/28 15:28:55;;;;;;;;;;;;;;;14.72;69.08;101211.88;10331067;28;99244;-77
2024/01/28 15:34:00;;;;;;;;;;;;;;;14.70;69.65;101203.13;10333676;28;96786;-77
2024/01/28 15:39:04;;;;;;;;;;;;;;;14.64;69.94;101212.16;10330245;28;96917;-76
2024/01/28 15:44:07;;;;;;;;;;;;;;;14.71;70.15;101212.81;10328409;28;96838;-76
2024/01/28 15:49:12;;;;;;;;;;;;;;;14.76;70.66;101213.47;10328466;28;97655;-76
2024/01/28 15:54:16;;;;;;;;;;;;;;;14.58;70.74;101207.13;10324500;28;98513;-76
2024/01/28 15:59:20;;;;;;;;;;;;;;;14.64;70.57;101225.41;10321941;28;97361;-75
2024/01/28 16:04:25;;;;;;;;;;;;;;;14.54;71.12;101213.47;10319158;28;96811;-80
2024/01/28 16:09:28;;;;;;;;;;;;;;;14.54;71.42;101226.72;10319712;28;97934;-81
2024/01/28 16:14:40;;;;;;;;;;;;;;;14.52;71.22;101225.06;10318743;28;97607;-80
2024/01/28 16:19:45;;;;;;;;;;;;;;;14.44;71.59;101219.19;10307673;28;97178;-79
2024/01/28 16:24:49;;;;;;;;;;;;;;;14.43;71.98;101221.00;10305411;28;96935;-82
2024/01/28 16:29:52;;;;;;;;;;;;;;;14.39;71.77;101221.19;10287784;28;96697;-82
2024/01/28 16:34:57;;;;;;;;;;;;;;;14.36;71.85;101218.66;10287350;28;96605;-82
2024/01/28 16:40:00;;;;;;;;;;;;;;;14.31;72.45;101223.28;10368417;28;96984;-82
2024/01/28 16:45:04;;;;;;;;;;;;;;;14.20;73.42;101222.81;10368949;28;97066;-82
2024/01/28 16:50:09;;;;;;;;;;;;;;;14.19;73.74;101224.63;10369027;28;97431;-83
2024/01/28 16:55:15;;;;;;;;;;;;;;;14.12;73.85;101227.56;10368144;28;96761;-83
2024/01/28 17:00:19;;;;;;;;;;;;;;;14.15;74.16;101220.38;10368803;28;96829;-82
2024/01/28 17:05:24;;;;;;;;;;;;;;;14.08;73.87;101232.09;10368794;28;96835;-82
2024/01/28 17:10:28;;;;;;;;;;;;;;;14.07;73.83;101222.47;10358527;28;97237;-82
2024/01/28 17:15:33;;;;;;;;;;;;;;;14.06;74.13;101230.44;10240150;28;2503127;-81
2024/01/28 17:20:40;;;;;;;;;;;;;;;13.95;74.43;101240.53;10330031;28;97368;-83
2024/01/28 17:25:43;;;;;;;;;;;;;;;13.93;74.76;101239.72;10329692;28;96931;-82
2024/01/28 17:30:46;;;;;;;;;;;;;;;13.92;75.00;101254.75;10329336;28;96998;-83
2024/01/28 17:35:51;;;;;;;;;;;;;;;13.87;75.04;101245.25;10328929;28;96702;-83
2024/01/28 17:40:56;;;;;;;;;;;;;;;13.85;75.45;101247.09;10329610;28;96619;-82
2024/01/28 17:45:59;;;;;;;;;;;;;;;13.87;75.26;101247.88;10329418;28;96731;-81
2024/01/28 17:51:04;;;;;;;;;;;;;;;13.90;75.30;101259.22;10329535;28;96716;-82
2024/01/28 17:56:07;;;;;;;;;;;;;;;13.83;75.27;101259.53;10329088;28;98950;-82
2024/01/28 18:01:11;;;;;;;;;;;;;;;13.81;75.25;101248.13;10329604;28;96756;-82
2024/01/28 18:06:16;;;;;;;;;;;;;;;13.85;75.27;101253.25;10329771;28;96659;-83
2024/01/28 18:11:19;;;;;;;;;;;;;;;13.79;75.68;101255.25;10313508;28;97254;-83
2024/01/28 18:16:24;;;;;;;;;;;;;;;13.78;75.81;101259.66;10287104;28;96893;-82
2024/01/28 18:21:28;;;;;;;;;;;;;;;13.78;75.87;101261.47;10327155;28;98410;-83
2024/01/28 18:26:32;;;;;;;;;;;;;;;13.63;76.97;101258.47;10335354;28;97072;-82
2024/01/28 18:31:35;;;;;;;;;;;;;;;13.61;76.45;101254.13;10334928;28;96944;-83
2024/01/28 18:36:40;;;;;;;;;;;;;;;13.55;76.77;101271.09;10335516;28;96662;-83
2024/01/28 18:41:44;;;;;;;;;;;;;;;13.59;77.27;101264.78;10335164;28;97034;-82
2024/01/28 18:46:48;;;;;;;;;;;;;;;13.54;76.93;101261.44;10334476;28;97377;-82
2024/01/28 18:51:56;;;;;;;;;;;;;;;13.53;77.50;101270.31;10334914;28;97164;-82
2024/01/28 18:56:59;;;;;;;;;;;;;;;13.48;77.29;101274.03;10334987;28;97035;-82
2024/01/28 19:02:03;;;;;;;;;;;;;;;13.38;78.21;101273.47;10334501;28;97226;-82
2024/01/28 19:07:09;;;;;;;;;;;;;;;13.35;78.21;101283.28;10334281;28;97297;-82
2024/01/28 19:12:12;;;;;;;;;;;;;;;13.38;77.91;101278.75;10310958;28;97199;-82
2024/01/28 19:17:17;;;;;;;;;;;;;;;13.32;78.63;101273.69;10311636;28;97041;-82
2024/01/28 19:22:24;;;;;;;;;;;;;;;13.25;78.88;101290.69;10333771;28;97274;-82
2024/01/28 19:27:27;;;;;;;;;;;;;;;13.25;78.80;101293.31;10334259;28;96665;-82
2024/01/28 19:32:31;;;;;;;;;;;;;;;13.24;78.75;101291.56;10332283;28;96804;-83
2024/01/28 19:37:36;;;;;;;;;;;;;;;13.21;79.43;101310.19;10333260;28;96775;-82
2024/01/28 19:42:39;;;;;;;;;;;;;;;13.22;79.25;101303.13;10333401;28;96800;-82
2024/01/28 19:47:42;;;;;;;;;;;;;;;13.23;79.83;101299.56;10332961;28;96763;-83
2024/01/28 19:52:47;;;;;;;;;;;;;;;13.18;79.55;101296.22;10332594;28;96642;-82
2024/01/28 19:57:50;;;;;;;;;;;;;;;13.16;79.62;101295.38;10332126;28;96712;-82
2024/01/28 20:02:53;;;;;;;;;;;;;;;13.12;80.18;101305.19;10364143;28;96861;-83
2024/01/28 20:07:59;;;;;;;;;;;;;;;13.09;80.15;101305.31;10336786;28;96672;-82
2024/01/28 20:13:02;;;;;;;;;;;;;;;13.14;80.33;101308.66;10302769;28;98272;-82
2024/01/28 20:18:06;;;;;;;;;;;;;;;13.17;79.79;101308.56;10324329;28;96796;-82
2024/01/28 20:23:13;;;;;;;;;;;;;;;13.21;79.97;101312.81;10331690;28;96778;-83
2024/01/28 20:28:16;;;;;;;;;;;;;;;13.17;80.27;101316.47;10331424;28;97293;-82
2024/01/28 20:33:19;;;;;;;;;;;;;;;13.26;79.62;101320.63;10331849;28;97218;-82
2024/01/28 20:38:24;;;;;;;;;;;;;;;13.28;79.31;101329.34;10331725;28;97352;-82
2024/01/28 20:43:29;;;;;;;;;;;;;;;13.28;79.51;101322.28;10330829;28;96636;-82
2024/01/28 20:48:33;;;;;;;;;;;;;;;13.23;79.98;101336.56;10330560;28;97007;-82
2024/01/28 20:53:37;;;;;;;;;;;;;;;13.20;80.12;101334.03;10359626;28;96805;-83
2024/01/28 20:58:41;;;;;;;;;;;;;;;13.19;79.99;101345.53;10372069;28;97288;-82
2024/01/28 21:03:45;;;;;;;;;;;;;;;13.12;80.42;101349.28;10352110;28;96896;-81
2024/01/28 21:08:50;;;;;;;;;;;;;;;13.14;80.58;101350.06;10330653;28;96723;-83
2024/01/28 21:13:54;;;;;;;;;;;;;;;13.15;80.33;101354.47;10329979;28;96696;-82
2024/01/28 21:18:57;;;;;;;;;;;;;;;13.15;80.15;101350.06;10330256;28;97368;-82
2024/01/28 21:24:02;;;;;;;;;;;;;;;13.21;80.21;101354.25;10330578;28;96633;-82
2024/01/28 21:29:05;;;;;;;;;;;;;;;13.22;79.72;101356.88;10289588;28;97335;-83
2024/01/28 21:34:09;;;;;;;;;;;;;;;13.17;80.19;101348.19;10288412;28;96659;-82
2024/01/28 21:39:14;;;;;;;;;;;;;;;13.16;80.20;101356.19;10288675;28;96903;-83
2024/01/28 21:44:18;;;;;;;;;;;;;;;13.18;80.10;101352.59;10315708;28;97199;-82
2024/01/28 21:49:23;;;;;;;;;;;;;;;13.22;79.98;101348.94;10329198;28;96747;-82
2024/01/28 21:54:29;;;;;;;;;;;;;;;13.22;79.84;101342.78;10329816;28;96996;-82
2024/01/28 21:59:33;;;;;;;;;;;;;;;13.26;79.68;101345.25;10336971;28;97023;-82
2024/01/28 22:04:37;;;;;;;;;;;;;;;13.27;79.79;101340.84;10335643;28;97460;-82
2024/01/28 22:09:43;;;;;;;;;;;;;;;13.32;79.34;101336.25;10335664;28;97202;-82
2024/01/28 22:14:46;;;;;;;;;;;;;;;13.31;79.42;101347.75;10335570;28;97323;-82
2024/01/28 22:19:49;;;;;;;;;;;;;;;13.29;79.30;101345.16;10336597;28;97690;-82
2024/01/28 22:24:56;;;;;;;;;;;;;;;13.26;79.54;101344.41;10335343;28;97644;-82
2024/01/28 22:29:59;;;;;;;;;;;;;;;13.22;79.86;101343.66;10335130;28;96757;-82
2024/01/28 22:35:03;;;;;;;;;;;;;;;13.18;79.88;101339.38;10334451;28;97085;-82
2024/01/28 22:40:10;;;;;;;;;;;;;;;13.19;79.68;101346.38;10335125;28;97269;-81
2024/01/28 22:45:14;;;;;;;;;;;;;;;13.25;79.60;101345.31;10343975;22;96816;-82
2024/01/28 22:50:18;;;;;;;;;;;;;;;13.21;79.71;101339.25;10376201;28;97520;-82
2024/01/28 22:55:23;;;;;;;;;;;;;;;13.23;79.76;101332.16;10375999;28;96985;-82
2024/01/28 23:00:26;;;;;;;;;;;;;;;13.19;79.97;101346.38;10375680;28;97554;-82
2024/01/28 23:05:30;;;;;;;;;;;;;;;13.15;79.81;101343.88;10375317;28;96627;-81
2024/01/28 23:10:37;;;;;;;;;;;;;;;13.16;79.96;101342.97;10376616;28;97174;-82
2024/01/28 23:15:40;;;;;;;;;;;;;;;13.07;80.37;101341.47;10374751;28;96812;-81
2024/01/28 23:20:43;;;;;;;;;;;;;;;13.10;80.11;101341.41;10375029;28;97079;-82
2024/01/28 23:25:48;;;;;;;;;;;;;;;13.06;80.03;101341.53;10374242;28;97328;-82
2024/01/28 23:30:51;;;;;;;;;;;;;;;12.97;80.55;101336.53;10374471;28;96715;-82
2024/01/28 23:35:55;;;;;;;;;;;;;;;12.98;80.65;101340.94;10373911;28;96819;-82
2024/01/28 23:40:59;;;;;;;;;;;;;;;12.99;80.50;101353.22;10381890;28;96768;-82
2024/01/28 23:46:02;;;;;;;;;;;;;;;12.93;80.90;101353.44;10415603;28;96870;-82
2024/01/28 23:51:06;;;;;;;;;;;;;;;12.91;80.71;101358.75;10415476;27;97384;-82
2024/01/28 23:56:10;;;;;;;;;;;;;;;12.90;80.90;101364.94;10410709;28;96705;-82
